Time,TemperatureF,DewpointF,PressureIn,WindDirection,WindDirectionDegrees,WindSpeedMPH,WindSpeedGustMPH,Humidity,HourlyPrecipIn,Conditions,Clouds,dailyrainin,SolarRadiationWatts/m^2,SoftwareType,DateUTC
2013-10-01 16:30:00,63.0,34.0,-100.00,WSW,237,6.0,14.0,34,0.00,,,0.00,413.000000,,2013-10-01 23:30:00,
2013-10-01 16:52:00,63.0,34.0,-100.00,WSW,237,6.0,14.0,34,0.00,,,0.00,413.000000,,2013-10-01 23:52:00,
2013-10-01 17:02:00,63.0,34.0,-100.00,WSW,237,6.0,14.0,34,0.00,,,0.00,413.000000,,2013-10-02 00:02:00,
2013-10-01 17:12:00,63.0,34.0,-100.00,WSW,237,6.0,14.0,34,0.00,,,0.00,413.000000,,2013-10-02 00:12:00,
2013-10-01 17:21:00,63.0,34.0,-100.00,WSW,237,6.0,14.0,34,0.00,,,0.00,413.000000,,2013-10-02 00:21:00,
2013-10-01 17:30:00,59.0,37.0,-100.00,West,266,7.0,14.0,44,0.00,,,0.00,248.000000,,2013-10-02 00:30:00,
2013-10-01 17:52:00,59.0,37.0,-100.00,West,266,7.0,14.0,44,0.00,,,0.00,248.000000,,2013-10-02 00:52:00,
2013-10-01 18:01:00,59.0,37.0,-100.00,West,266,7.0,14.0,44,0.00,,,0.00,248.000000,,2013-10-02 01:01:00,
2013-10-01 18:12:00,59.0,37.0,-100.00,West,266,7.0,14.0,44,0.00,,,0.00,248.000000,,2013-10-02 01:12:00,
2013-10-01 18:21:00,59.0,37.0,-100.00,West,266,7.0,14.0,44,0.00,,,0.00,248.000000,,2013-10-02 01:21:00,
2013-10-01 18:30:00,57.0,39.0,-100.00,WSW,252,5.0,8.0,50,0.00,,,0.00,73.000000,,2013-10-02 01:30:00,
2013-10-01 18:52:00,57.0,39.0,-100.00,WSW,252,5.0,8.0,50,0.00,,,0.00,73.000000,,2013-10-02 01:52:00,
2013-10-01 19:02:00,57.0,39.0,-100.00,WSW,252,5.0,8.0,50,0.00,,,0.00,73.000000,,2013-10-02 02:02:00,
2013-10-01 19:11:00,57.0,39.0,-100.00,WSW,252,5.0,8.0,50,0.00,,,0.00,73.000000,,2013-10-02 02:11:00,
2013-10-01 19:22:00,57.0,39.0,-100.00,WSW,252,5.0,8.0,50,0.00,,,0.00,73.000000,,2013-10-02 02:22:00,
2013-10-01 19:30:00,51.0,39.0,-100.00,WSW,257,8.0,10.0,64,0.00,,,-99.99,2.000000,,2013-10-02 02:30:00,
2013-10-01 19:52:00,51.0,39.0,-100.00,WSW,257,8.0,10.0,64,0.00,,,-99.99,2.000000,,2013-10-02 02:52:00,
2013-10-01 20:02:00,51.0,39.0,-100.00,WSW,257,8.0,10.0,64,0.00,,,-99.99,2.000000,,2013-10-02 03:02:00,
2013-10-01 20:12:00,51.0,39.0,-100.00,WSW,257,8.0,10.0,64,0.00,,,-99.99,2.000000,,2013-10-02 03:12:00,
2013-10-01 20:22:00,51.0,39.0,-100.00,WSW,257,8.0,10.0,64,0.00,,,-99.99,2.000000,,2013-10-02 03:22:00,
2013-10-01 20:54:00,45.0,37.0,-100.00,West,276,5.0,9.0,72,0.00,,,0.00,0.000000,,2013-10-02 03:54:00,
2013-10-01 21:05:00,45.0,37.0,-100.00,West,276,5.0,9.0,72,0.00,,,0.00,0.000000,,2013-10-02 04:05:00,
2013-10-01 21:30:00,44.0,37.0,-100.00,NW,322,6.0,8.0,77,-99.99,,,0.00,0.000000,,2013-10-02 04:30:00,
2013-10-01 21:54:00,44.0,37.0,-100.00,NW,322,6.0,8.0,77,-99.99,,,0.00,0.000000,,2013-10-02 04:54:00,
2013-10-01 22:04:00,44.0,37.0,-100.00,NW,322,6.0,8.0,77,-99.99,,,0.00,0.000000,,2013-10-02 05:04:00,
2013-10-01 22:13:00,44.0,37.0,-100.00,NW,322,6.0,8.0,77,-99.99,,,0.00,0.000000,,2013-10-02 05:13:00,
2013-10-01 22:22:00,44.0,37.0,-100.00,NW,322,6.0,8.0,77,-99.99,,,0.00,0.000000,,2013-10-02 05:22:00,
2013-10-01 22:30:00,45.0,37.0,-100.00,West,280,9.0,11.0,74,0.00,,,0.00,0.000000,,2013-10-02 05:30:00,
2013-10-01 22:53:00,45.0,37.0,-100.00,West,280,9.0,11.0,74,0.00,,,0.00,0.000000,,2013-10-02 05:53:00,
2013-10-01 23:03:00,45.0,37.0,-100.00,West,280,9.0,11.0,74,0.00,,,0.00,0.000000,,2013-10-02 06:03:00,
2013-10-01 23:12:00,45.0,37.0,-100.00,West,280,9.0,11.0,74,0.00,,,0.00,0.000000,,2013-10-02 06:12:00,
2013-10-01 23:21:00,45.0,37.0,-100.00,West,280,9.0,11.0,74,0.00,,,0.00,0.000000,,2013-10-02 06:21:00,
2013-10-01 23:30:00,50.0,36.0,-100.00,NNW,330,6.0,13.0,59,0.00,,,0.00,0.000000,,2013-10-02 06:30:00,
2013-10-01 23:52:00,50.0,36.0,-100.00,NNW,330,6.0,13.0,59,0.00,,,0.00,0.000000,,2013-10-02 06:52:00,